Time;durP1;ratioP1;P1;durP2;ratioP2;P2;SDS_P1;SDS_P2;PMS_P1;PMS_P2;Temp;Humidity;BMP_temperature;BMP_pressure;BME280_temperature;BME280_humidity;BME280_pressure;Samples;Min_cycle;Max_cycle;Signal;HPM_P1;HPM_P2
2021/12/27 00:04:06;;;;;;;17.43;10.03;;;;;;;-4.27;89.14;100829.53;30910787;28;20058;-78
2021/12/27 00:19:09;;;;;;;16.93;10.33;;;;;;;-4.25;88.00;100832.69;30874342;28;20062;-79
2021/12/27 00:34:11;;;;;;;22.07;9.27;;;;;;;-4.21;86.94;100852.19;30887715;28;20405;-77
2021/12/27 00:49:14;;;;;;;26.97;11.63;;;;;;;-4.19;87.92;100848.16;30879770;28;20051;-78
2021/12/27 01:04:15;;;;;;;26.20;11.80;;;;;;;-4.08;88.35;100847.91;30877535;28;20724;-78
2021/12/27 01:19:18;;;;;;;14.93;10.83;;;;;;;-4.28;87.47;100854.47;30882788;28;20057;-78
2021/12/27 01:34:23;;;;;;;19.23;10.13;;;;;;;-4.66;88.08;100844.16;30889912;28;20051;-79
2021/12/27 01:49:24;;;;;;;17.53;7.90;;;;;;;-4.87;87.60;100853.63;30905810;28;20062;-80
2021/12/27 02:04:26;;;;;;;12.43;7.83;;;;;;;-5.08;87.33;100850.63;30885874;28;20083;-80
2021/12/27 02:19:28;;;;;;;19.20;10.80;;;;;;;-5.19;89.06;100878.34;30880536;28;20416;-79
2021/12/27 02:34:30;;;;;;;20.13;10.67;;;;;;;-5.40;88.43;100885.09;30852389;28;20138;-79
2021/12/27 02:49:32;;;;;;;23.27;12.37;;;;;;;-5.61;88.93;100895.25;30893334;28;20050;-80
2021/12/27 03:04:35;;;;;;;22.23;10.77;;;;;;;-5.64;89.90;100903.78;30894858;28;20089;-80
2021/12/27 03:19:37;;;;;;;13.03;7.63;;;;;;;-5.81;88.53;100914.09;30877841;28;20057;-80
2021/12/27 03:34:52;;;;;;;10.77;6.23;;;;;;;-5.91;89.29;100929.09;30895727;28;20061;-78
2021/12/27 03:49:54;;;;;;;12.13;7.90;;;;;;;-5.79;87.57;100927.84;30874803;28;20056;-77
2021/12/27 04:04:55;;;;;;;15.90;7.97;;;;;;;-5.76;88.62;100935.19;30894962;28;20072;-80
2021/12/27 04:19:57;;;;;;;14.77;9.23;;;;;;;-5.81;88.56;100951.91;30868162;28;20051;-79
2021/12/27 04:34:59;;;;;;;15.27;8.33;;;;;;;-5.72;87.18;100944.13;30884550;28;20129;-80
2021/12/27 04:50:01;;;;;;;17.60;7.67;;;;;;;-5.88;87.31;100968.13;30899670;28;20054;-81
2021/12/27 05:05:04;;;;;;;15.13;9.20;;;;;;;-5.93;87.76;100976.19;30848547;28;20085;-80
2021/12/27 05:20:08;;;;;;;21.40;11.53;;;;;;;-6.02;89.55;100977.13;30839752;28;20066;-80
2021/12/27 05:35:11;;;;;;;18.70;13.23;;;;;;;-5.76;92.74;101001.31;30883653;28;20063;-79
2021/12/27 05:50:15;;;;;;;25.27;14.57;;;;;;;-5.41;95.33;101013.97;30840360;28;20466;-80
2021/12/27 06:05:18;;;;;;;25.90;13.13;;;;;;;-5.31;95.78;101060.69;30887945;28;20058;-79
2021/12/27 06:20:20;;;;;;;36.17;16.67;;;;;;;-5.58;97.32;101056.84;30882215;28;20571;-80
2021/12/27 06:35:22;;;;;;;23.67;15.40;;;;;;;-5.70;95.58;101084.81;30872585;28;20146;-80
2021/12/27 06:50:23;;;;;;;33.93;17.07;;;;;;;-5.86;92.65;101082.34;30900693;28;20054;-81
2021/12/27 07:05:25;;;;;;;36.63;18.90;;;;;;;-5.72;96.21;101068.44;30882258;28;20054;-81
2021/12/27 07:20:43;;;;;;;51.30;19.37;;;;;;;-5.50;95.58;101079.22;30887637;28;20427;-83
2021/12/27 07:35:45;;;;;;;37.83;19.20;;;;;;;-5.37;93.66;101093.59;30876907;28;20134;-76
2021/12/27 07:50:47;;;;;;;40.27;18.43;;;;;;;-5.12;91.39;101095.06;30885099;28;20057;-81
2021/12/27 08:05:49;;;;;;;29.80;16.93;;;;;;;-4.44;92.36;101089.91;30864254;28;20059;-81
2021/12/27 08:20:51;;;;;;;30.07;18.23;;;;;;;-3.95;85.55;101096.38;30873637;28;20061;-78
2021/12/27 08:35:53;;;;;;;34.93;15.53;;;;;;;-3.97;85.71;101083.41;30885121;28;20042;-76
2021/12/27 08:50:55;;;;;;;34.03;15.63;;;;;;;-4.00;86.80;101062.78;30909467;28;20397;-78
2021/12/27 09:05:57;;;;;;;31.47;15.23;;;;;;;-4.16;87.87;101069.50;30892671;28;20412;-76
2021/12/27 09:21:03;;;;;;;26.13;13.27;;;;;;;-3.59;86.93;101072.56;30867368;28;20061;-74
2021/12/27 09:36:05;;;;;;;24.13;13.07;;;;;;;-3.58;85.30;101066.16;30899331;28;20499;-74
2021/12/27 09:51:07;;;;;;;33.50;13.70;;;;;;;-3.51;86.87;101085.09;30890810;28;20050;-75
2021/12/27 10:06:12;;;;;;;38.07;20.07;;;;;;;-3.65;85.75;101105.59;30877678;28;20054;-76
2021/12/27 10:21:14;;;;;;;31.43;17.07;;;;;;;-3.70;85.71;101097.72;30882029;28;20437;-75
2021/12/27 10:36:16;;;;;;;50.17;22.07;;;;;;;-3.47;86.04;101091.38;30871512;28;20062;-78
2021/12/27 10:51:18;;;;;;;50.93;24.73;;;;;;;-3.29;84.81;101087.78;30875015;28;20129;-79
2021/12/27 11:06:25;;;;;;;51.87;21.03;;;;;;;-3.42;86.54;101071.91;30856517;28;20047;-76
2021/12/27 11:21:34;;;;;;;57.30;21.23;;;;;;;-3.51;87.31;101069.16;30858172;28;20142;-74
2021/12/27 11:36:40;;;;;;;44.80;22.50;;;;;;;-3.48;87.48;101063.25;30839823;28;20564;-78
2021/12/27 11:51:43;;;;;;;;;;;;;;;-3.40;87.97;101056.47;30869629;28;20134;-78
2021/12/27 12:06:45;;;;;;;58.50;25.77;;;;;;;-3.29;89.20;101066.53;30900047;28;19928;-78
2021/12/27 12:21:51;;;;;;;66.07;27.37;;;;;;;-3.28;90.61;101070.75;30909209;28;20046;-78
2021/12/27 12:36:57;;;;;;;63.23;29.00;;;;;;;-3.16;90.54;101081.63;30866724;28;20081;-77
2021/12/27 12:52:04;;;;;;;68.43;25.87;;;;;;;-2.84;89.06;101077.94;30884982;28;20141;-79
2021/12/27 13:07:06;;;;;;;48.90;21.30;;;;;;;-3.01;87.19;101077.81;30886065;28;20055;-78
2021/12/27 13:22:08;;;;;;;25.77;11.90;;;;;;;-3.33;85.36;101070.88;30879781;28;20046;-80
2021/12/27 13:37:10;;;;;;;24.47;12.67;;;;;;;-3.44;87.14;101085.47;30896419;28;20145;-78
2021/12/27 13:52:17;;;;;;;38.53;18.20;;;;;;;-3.64;85.94;101096.53;30843067;28;20501;-76
2021/12/27 14:07:22;;;;;;;44.33;21.77;;;;;;;-3.73;88.68;101087.72;30889419;28;20142;-75
2021/12/27 14:22:24;;;;;;;54.43;24.73;;;;;;;-4.05;88.76;101070.88;30869086;28;20057;-77
2021/12/27 14:37:26;;;;;;;48.77;22.53;;;;;;;-4.23;89.04;101085.00;30833575;28;20057;-77
2021/12/27 14:52:28;;;;;;;42.93;21.40;;;;;;;-4.14;88.19;101104.47;30737566;28;20116;-78
2021/12/27 15:07:37;;;;;;;46.90;17.57;;;;;;;-4.22;87.94;101110.44;30752826;28;20051;-77
2021/12/27 15:22:39;;;;;;;40.67;17.70;;;;;;;-4.04;88.07;101108.78;30764534;28;20065;-77
2021/12/27 15:37:41;;;;;;;41.50;21.63;;;;;;;-4.16;88.15;101112.72;30744506;28;20051;-78
2021/12/27 15:52:43;;;;;;;31.70;16.20;;;;;;;-4.14;87.40;101117.72;30736665;28;20136;-80
2021/12/27 16:07:51;;;;;;;40.70;18.67;;;;;;;-4.23;87.64;101119.47;30772661;28;20047;-80
2021/12/27 16:22:53;;;;;;;47.07;19.93;;;;;;;-4.21;87.46;101101.41;30775169;28;20082;-81
2021/12/27 16:37:55;;;;;;;50.80;19.00;;;;;;;-4.20;86.78;101079.13;30783396;28;20157;-80
2021/12/27 16:52:59;;;;;;;31.17;14.40;;;;;;;-4.19;85.12;101070.09;30756873;28;20051;-82
2021/12/27 17:08:01;;;;;;;57.53;20.97;;;;;;;-4.28;85.24;101071.88;30729413;29;20047;-82
2021/12/27 17:23:03;;;;;;;29.27;13.27;;;;;;;-4.23;83.98;101093.75;30773197;28;20087;-83
2021/12/27 17:38:05;;;;;;;24.10;12.17;;;;;;;-4.07;84.56;101061.66;30777062;28;20055;-74
2021/12/27 17:53:08;;;;;;;25.10;11.63;;;;;;;-4.18;84.97;101058.41;30755763;28;20047;-77
2021/12/27 18:08:11;;;;;;;18.20;10.73;;;;;;;-4.49;84.88;101048.38;30751180;28;20055;-77
2021/12/27 18:23:13;;;;;;;25.07;12.00;;;;;;;-4.18;84.72;101098.16;30737952;28;20057;-76
2021/12/27 18:38:17;;;;;;;20.93;9.93;;;;;;;-3.99;86.61;101069.66;30736626;28;20061;-75
2021/12/27 18:53:19;;;;;;;24.90;12.43;;;;;;;-4.09;84.35;101069.88;30750528;28;20094;-78
2021/12/27 19:08:22;;;;;;;24.73;14.33;;;;;;;-4.19;85.08;101067.44;30809159;28;20053;-76
2021/12/27 19:23:24;;;;;;;26.50;13.13;;;;;;;-3.99;84.33;101067.00;30860846;28;20133;-77
2021/12/27 19:38:27;;;;;;;25.93;15.33;;;;;;;-3.90;84.16;101057.28;30874980;28;20417;-77
2021/12/27 19:53:29;;;;;;;29.03;12.70;;;;;;;-3.91;82.68;101047.75;30853498;28;20114;-76
2021/12/27 20:08:31;;;;;;;31.37;12.87;;;;;;;-3.94;83.70;101040.38;30896821;28;20122;-78
2021/12/27 20:23:33;;;;;;;31.50;13.37;;;;;;;-4.03;85.18;101050.16;30895080;28;20043;-79
2021/12/27 20:38:35;;;;;;;29.53;13.07;;;;;;;-3.96;81.90;101031.16;30897390;28;20082;-77
2021/12/27 20:53:37;;;;;;;26.93;13.53;;;;;;;-3.95;84.65;101030.06;30880884;28;20038;-78
2021/12/27 21:08:43;;;;;;;24.47;11.80;;;;;;;-3.76;84.47;101009.47;30874028;28;20050;-81
2021/12/27 21:23:45;;;;;;;23.33;11.00;;;;;;;-3.94;84.54;100981.25;30889822;28;20062;-81
2021/12/27 21:38:48;;;;;;;23.73;14.63;;;;;;;-4.05;85.27;100969.31;30878998;28;20141;-82
2021/12/27 21:53:50;;;;;;;49.77;22.27;;;;;;;-3.80;86.62;100934.25;30896835;28;20403;-81
2021/12/27 22:08:51;;;;;;;24.13;13.33;;;;;;;-3.95;85.77;100938.03;30884908;28;20058;-80
2021/12/27 22:23:53;;;;;;;30.00;14.03;;;;;;;-4.05;85.44;100934.84;30861729;28;20043;-82
2021/12/27 22:38:55;;;;;;;36.43;13.10;;;;;;;-4.20;83.80;100914.72;30866820;28;20428;-81
2021/12/27 22:53:58;;;;;;;22.97;11.53;;;;;;;-4.41;86.27;100918.91;30868219;28;20142;-83
2021/12/27 23:08:59;;;;;;;42.10;19.37;;;;;;;-4.58;88.21;100899.13;30858539;28;20054;-82
2021/12/27 23:24:01;;;;;;;27.87;13.60;;;;;;;-4.44;90.65;100861.19;30865105;28;20138;-81
2021/12/27 23:39:04;;;;;;;27.90;12.40;;;;;;;-4.56;88.71;100875.75;30872647;28;20050;-82
2021/12/27 23:54:06;;;;;;;21.70;12.40;;;;;;;-4.58;89.08;100867.31;30895710;28;20053;-82
